sensor_id;sensor_type;location;lat;lon;timestamp;pressure;altitude;pressure_sealevel;temperature;humidity
76460;BME280;65299;46.084;18.762;2022-11-20T00:01:46;100102.69;;;16.62;60.65
76460;BME280;65299;46.084;18.762;2022-11-20T00:04:47;100097.81;;;16.64;60.43
76460;BME280;65299;46.084;18.762;2022-11-20T00:07:47;100085.53;;;16.63;60.46
76460;BME280;65299;46.084;18.762;2022-11-20T00:10:48;100061.84;;;16.56;60.57
76460;BME280;65299;46.084;18.762;2022-11-20T00:13:51;100064.38;;;16.52;60.87
76460;BME280;65299;46.084;18.762;2022-11-20T00:16:51;100084.81;;;16.48;60.75
76460;BME280;65299;46.084;18.762;2022-11-20T00:19:52;100090.69;;;16.50;60.74
76460;BME280;65299;46.084;18.762;2022-11-20T00:22:52;100089.09;;;16.49;60.90
76460;BME280;65299;46.084;18.762;2022-11-20T00:25:53;100091.75;;;16.49;60.85
76460;BME280;65299;46.084;18.762;2022-11-20T00:28:55;100095.53;;;16.48;60.76
76460;BME280;65299;46.084;18.762;2022-11-20T00:31:56;100089.09;;;16.49;60.88
76460;BME280;65299;46.084;18.762;2022-11-20T00:34:56;100085.31;;;16.50;60.66
76460;BME280;65299;46.084;18.762;2022-11-20T00:37:57;100064.97;;;16.49;60.91
76460;BME280;65299;46.084;18.762;2022-11-20T00:40:58;100053.03;;;16.55;60.56
76460;BME280;65299;46.084;18.762;2022-11-20T00:43:59;100051.78;;;16.62;60.48
76460;BME280;65299;46.084;18.762;2022-11-20T00:47:00;100054.00;;;16.59;60.53
76460;BME280;65299;46.084;18.762;2022-11-20T00:50:00;100062.78;;;16.51;60.81
76460;BME280;65299;46.084;18.762;2022-11-20T00:53:00;100072.25;;;16.49;60.75
76460;BME280;65299;46.084;18.762;2022-11-20T00:56:03;100073.91;;;16.45;60.81
76460;BME280;65299;46.084;18.762;2022-11-20T00:59:04;100081.16;;;16.44;60.75
76460;BME280;65299;46.084;18.762;2022-11-20T01:02:04;100089.19;;;16.44;60.88
76460;BME280;65299;46.084;18.762;2022-11-20T01:05:05;100095.34;;;16.45;60.70
76460;BME280;65299;46.084;18.762;2022-11-20T01:08:05;100086.63;;;16.39;60.81
76460;BME280;65299;46.084;18.762;2022-11-20T01:11:08;100079.56;;;16.43;60.77
76460;BME280;65299;46.084;18.762;2022-11-20T01:14:11;100076.13;;;16.43;60.69
76460;BME280;65299;46.084;18.762;2022-11-20T01:17:12;100086.03;;;16.42;60.94
76460;BME280;65299;46.084;18.762;2022-11-20T01:20:12;100106.66;;;16.42;60.82
76460;BME280;65299;46.084;18.762;2022-11-20T01:23:13;100101.72;;;16.49;60.70
76460;BME280;65299;46.084;18.762;2022-11-20T01:26:17;100081.47;;;16.43;60.82
76460;BME280;65299;46.084;18.762;2022-11-20T01:29:21;100084.44;;;16.41;60.89
76460;BME280;65299;46.084;18.762;2022-11-20T01:32:21;100090.09;;;16.40;60.76
76460;BME280;65299;46.084;18.762;2022-11-20T01:35:22;100093.09;;;16.38;60.86
76460;BME280;65299;46.084;18.762;2022-11-20T01:38:22;100090.41;;;16.38;60.91
76460;BME280;65299;46.084;18.762;2022-11-20T01:41:24;100094.38;;;16.41;60.84
76460;BME280;65299;46.084;18.762;2022-11-20T01:44:56;100093.34;;;16.50;60.38
76460;BME280;65299;46.084;18.762;2022-11-20T01:47:57;100092.13;;;16.56;60.00
76460;BME280;65299;46.084;18.762;2022-11-20T01:50:58;100094.88;;;16.43;60.60
76460;BME280;65299;46.084;18.762;2022-11-20T01:54:02;100078.47;;;16.44;60.50
76460;BME280;65299;46.084;18.762;2022-11-20T01:57:06;100058.69;;;16.54;60.12
76460;BME280;65299;46.084;18.762;2022-11-20T02:00:11;100051.47;;;16.54;60.05
76460;BME280;65299;46.084;18.762;2022-11-20T02:03:16;100041.88;;;16.40;60.48
76460;BME280;65299;46.084;18.762;2022-11-20T02:06:26;100052.91;;;16.38;60.68
76460;BME280;65299;46.084;18.762;2022-11-20T02:09:27;100066.31;;;16.38;60.43
76460;BME280;65299;46.084;18.762;2022-11-20T02:12:28;100060.94;;;16.38;60.69
76460;BME280;65299;46.084;18.762;2022-11-20T02:15:48;100061.25;;;16.37;60.50
76460;BME280;65299;46.084;18.762;2022-11-20T02:18:49;100078.09;;;16.37;60.78
76460;BME280;65299;46.084;18.762;2022-11-20T02:22:00;100085.38;;;16.37;60.66
76460;BME280;65299;46.084;18.762;2022-11-20T02:25:03;100097.97;;;16.36;60.64
76460;BME280;65299;46.084;18.762;2022-11-20T02:28:06;100101.72;;;16.35;60.83
76460;BME280;65299;46.084;18.762;2022-11-20T02:31:06;100104.41;;;16.35;60.62
76460;BME280;65299;46.084;18.762;2022-11-20T02:34:07;100092.13;;;16.34;60.71
76460;BME280;65299;46.084;18.762;2022-11-20T02:37:08;100083.28;;;16.34;60.57
76460;BME280;65299;46.084;18.762;2022-11-20T02:40:08;100075.56;;;16.32;60.69
76460;BME280;65299;46.084;18.762;2022-11-20T02:43:09;100083.28;;;16.34;60.55
76460;BME280;65299;46.084;18.762;2022-11-20T02:46:10;100086.28;;;16.32;60.41
76460;BME280;65299;46.084;18.762;2022-11-20T02:49:10;100080.94;;;16.32;60.71
76460;BME280;65299;46.084;18.762;2022-11-20T02:52:11;100078.72;;;16.34;60.45
76460;BME280;65299;46.084;18.762;2022-11-20T02:55:11;100074.19;;;16.35;60.44
76460;BME280;65299;46.084;18.762;2022-11-20T02:58:12;100077.63;;;16.35;60.40
76460;BME280;65299;46.084;18.762;2022-11-20T03:01:12;100063.47;;;16.35;60.33
76460;BME280;65299;46.084;18.762;2022-11-20T03:04:13;100054.94;;;16.33;60.30
76460;BME280;65299;46.084;18.762;2022-11-20T03:07:13;100058.69;;;16.32;60.34
76460;BME280;65299;46.084;18.762;2022-11-20T03:10:14;100064.06;;;16.32;60.52
76460;BME280;65299;46.084;18.762;2022-11-20T03:13:14;100057.09;;;16.31;60.42
76460;BME280;65299;46.084;18.762;2022-11-20T03:16:18;100045.31;;;16.32;60.23
76460;BME280;65299;46.084;18.762;2022-11-20T03:19:19;100018.84;;;16.30;60.50
76460;BME280;65299;46.084;18.762;2022-11-20T03:22:19;100020.41;;;16.31;60.32
76460;BME280;65299;46.084;18.762;2022-11-20T03:25:20;100024.97;;;16.31;60.32
76460;BME280;65299;46.084;18.762;2022-11-20T03:28:21;100023.88;;;16.32;60.48
76460;BME280;65299;46.084;18.762;2022-11-20T03:31:24;100022.59;;;16.29;60.22
76460;BME280;65299;46.084;18.762;2022-11-20T03:34:25;100016.16;;;16.30;60.20
76460;BME280;65299;46.084;18.762;2022-11-20T03:37:25;100018.84;;;16.30;60.31
76460;BME280;65299;46.084;18.762;2022-11-20T03:40:26;100049.38;;;16.29;60.47
76460;BME280;65299;46.084;18.762;2022-11-20T03:43:26;100071.59;;;16.30;60.10
76460;BME280;65299;46.084;18.762;2022-11-20T03:46:27;100071.28;;;16.31;60.39
76460;BME280;65299;46.084;18.762;2022-11-20T03:49:28;100067.81;;;16.31;60.22
76460;BME280;65299;46.084;18.762;2022-11-20T03:52:28;100059.00;;;16.30;60.25
76460;BME280;65299;46.084;18.762;2022-11-20T03:55:29;100046.69;;;16.29;60.07
76460;BME280;65299;46.084;18.762;2022-11-20T03:58:29;100017.88;;;16.26;60.43
76460;BME280;65299;46.084;18.762;2022-11-20T04:01:32;100012.03;;;16.24;60.24
76460;BME280;65299;46.084;18.762;2022-11-20T04:04:33;100041.00;;;16.22;60.40
76460;BME280;65299;46.084;18.762;2022-11-20T04:07:33;100052.19;;;16.24;60.37
76460;BME280;65299;46.084;18.762;2022-11-20T04:10:34;100045.41;;;16.18;60.51
76460;BME280;65299;46.084;18.762;2022-11-20T04:13:34;100041.78;;;16.23;60.20
76460;BME280;65299;46.084;18.762;2022-11-20T04:16:36;100035.94;;;16.21;60.00
76460;BME280;65299;46.084;18.762;2022-11-20T04:19:36;100049.22;;;16.26;60.05
76460;BME280;65299;46.084;18.762;2022-11-20T04:22:36;100059.31;;;16.29;59.95
76460;BME280;65299;46.084;18.762;2022-11-20T04:25:37;100042.94;;;16.30;60.04
76460;BME280;65299;46.084;18.762;2022-11-20T04:28:38;100014.88;;;16.28;59.89
76460;BME280;65299;46.084;18.762;2022-11-20T04:31:38;100008.72;;;16.27;60.17
76460;BME280;65299;46.084;18.762;2022-11-20T04:34:39;100027.00;;;16.25;60.06
76460;BME280;65299;46.084;18.762;2022-11-20T04:37:39;100029.34;;;16.27;59.95
76460;BME280;65299;46.084;18.762;2022-11-20T04:40:40;100031.88;;;16.23;60.22
76460;BME280;65299;46.084;18.762;2022-11-20T04:43:40;100043.06;;;16.25;59.99
76460;BME280;65299;46.084;18.762;2022-11-20T04:46:41;100030.78;;;16.24;60.10
76460;BME280;65299;46.084;18.762;2022-11-20T04:49:42;100033.47;;;16.24;60.03
76460;BME280;65299;46.084;18.762;2022-11-20T04:52:42;100028.38;;;16.23;60.07
76460;BME280;65299;46.084;18.762;2022-11-20T04:55:43;100015.78;;;16.23;60.16
76460;BME280;65299;46.084;18.762;2022-11-20T04:58:43;100016.09;;;16.22;60.00
76460;BME280;65299;46.084;18.762;2022-11-20T05:01:44;100026.16;;;16.16;60.16
76460;BME280;65299;46.084;18.762;2022-11-20T05:04:44;100051.22;;;16.20;60.15
76460;BME280;65299;46.084;18.762;2022-11-20T05:07:45;100033.56;;;16.19;60.11
76460;BME280;65299;46.084;18.762;2022-11-20T05:10:45;100023.97;;;16.18;59.88
76460;BME280;65299;46.084;18.762;2022-11-20T05:13:46;100015.94;;;16.18;59.89
76460;BME280;65299;46.084;18.762;2022-11-20T05:16:46;100030.56;;;16.21;59.86
76460;BME280;65299;46.084;18.762;2022-11-20T05:19:47;100036.72;;;16.21;60.14
76460;BME280;65299;46.084;18.762;2022-11-20T05:22:47;100044.75;;;16.21;60.14
76460;BME280;65299;46.084;18.762;2022-11-20T05:25:48;100047.44;;;16.21;59.85
76460;BME280;65299;46.084;18.762;2022-11-20T05:28:49;100034.06;;;16.21;59.96
76460;BME280;65299;46.084;18.762;2022-11-20T05:31:49;100045.88;;;16.20;60.11
76460;BME280;65299;46.084;18.762;2022-11-20T05:34:49;100067.28;;;16.20;59.77
76460;BME280;65299;46.084;18.762;2022-11-20T05:37:50;100084.44;;;16.19;59.96
76460;BME280;65299;46.084;18.762;2022-11-20T05:40:50;100075.63;;;16.19;59.82
76460;BME280;65299;46.084;18.762;2022-11-20T05:43:51;100050.75;;;16.18;60.03
76460;BME280;65299;46.084;18.762;2022-11-20T05:46:51;100029.31;;;16.18;60.00
76460;BME280;65299;46.084;18.762;2022-11-20T05:49:52;100019.69;;;16.17;59.73
76460;BME280;65299;46.084;18.762;2022-11-20T05:52:52;100050.75;;;16.18;59.80
76460;BME280;65299;46.084;18.762;2022-11-20T05:56:00;100062.06;;;16.15;59.85
76460;BME280;65299;46.084;18.762;2022-11-20T05:59:01;100073.25;;;16.17;59.74
76460;BME280;65299;46.084;18.762;2022-11-20T06:02:01;100062.53;;;16.17;59.70
76460;BME280;65299;46.084;18.762;2022-11-20T06:05:02;100050.06;;;16.13;59.80
76460;BME280;65299;46.084;18.762;2022-11-20T06:08:03;100055.41;;;16.13;59.93
76460;BME280;65299;46.084;18.762;2022-11-20T06:11:04;100060.19;;;16.16;59.89
76460;BME280;65299;46.084;18.762;2022-11-20T06:14:05;100056.69;;;16.15;59.81
76460;BME280;65299;46.084;18.762;2022-11-20T06:17:05;100059.19;;;16.12;59.94
76460;BME280;65299;46.084;18.762;2022-11-20T06:20:06;100072.91;;;16.10;60.01
76460;BME280;65299;46.084;18.762;2022-11-20T06:23:07;100073.19;;;16.09;60.02
76460;BME280;65299;46.084;18.762;2022-11-20T06:26:10;100077.94;;;16.12;59.99
76460;BME280;65299;46.084;18.762;2022-11-20T06:29:10;100082.50;;;16.11;59.49
76460;BME280;65299;46.084;18.762;2022-11-20T06:32:11;100100.16;;;16.12;59.87
76460;BME280;65299;46.084;18.762;2022-11-20T06:35:11;100087.84;;;16.11;59.71
76460;BME280;65299;46.084;18.762;2022-11-20T06:38:12;100084.38;;;16.11;59.80
76460;BME280;65299;46.084;18.762;2022-11-20T06:41:15;100088.47;;;16.08;59.93
76460;BME280;65299;46.084;18.762;2022-11-20T06:44:16;100084.69;;;16.09;59.96
76460;BME280;65299;46.084;18.762;2022-11-20T06:47:17;100068.13;;;16.07;59.64
76460;BME280;65299;46.084;18.762;2022-11-20T06:50:17;100072.41;;;16.08;59.90
76460;BME280;65299;46.084;18.762;2022-11-20T06:53:18;100083.88;;;16.09;59.73
76460;BME280;65299;46.084;18.762;2022-11-20T06:56:18;100094.91;;;16.07;59.83
76460;BME280;65299;46.084;18.762;2022-11-20T06:59:19;100099.47;;;16.07;60.01
76460;BME280;65299;46.084;18.762;2022-11-20T07:02:19;100104.81;;;16.07;59.74
76460;BME280;65299;46.084;18.762;2022-11-20T07:05:20;100104.81;;;16.07;59.82
76460;BME280;65299;46.084;18.762;2022-11-20T07:08:20;100104.06;;;16.06;59.72
76460;BME280;65299;46.084;18.762;2022-11-20T07:11:20;100111.59;;;16.04;59.68
76460;BME280;65299;46.084;18.762;2022-11-20T07:14:21;100117.72;;;16.05;59.82
76460;BME280;65299;46.084;18.762;2022-11-20T07:17:21;100118.50;;;16.05;59.96
76460;BME280;65299;46.084;18.762;2022-11-20T07:20:22;100099.28;;;16.03;59.78
76460;BME280;65299;46.084;18.762;2022-11-20T07:23:22;100090.19;;;16.04;59.78
76460;BME280;65299;46.084;18.762;2022-11-20T07:26:22;100083.22;;;16.03;59.76
76460;BME280;65299;46.084;18.762;2022-11-20T07:29:23;100095.03;;;16.02;59.75
76460;BME280;65299;46.084;18.762;2022-11-20T07:32:24;100118.34;;;16.02;59.69
76460;BME280;65299;46.084;18.762;2022-11-20T07:35:25;100112.97;;;16.02;59.76
76460;BME280;65299;46.084;18.762;2022-11-20T07:38:25;100112.81;;;15.98;59.70
76460;BME280;65299;46.084;18.762;2022-11-20T07:41:26;100122.72;;;15.98;59.97
76460;BME280;65299;46.084;18.762;2022-11-20T07:44:27;100120.03;;;15.98;59.74
76460;BME280;65299;46.084;18.762;2022-11-20T07:47:28;100115.16;;;16.00;59.72
76460;BME280;65299;46.084;18.762;2022-11-20T07:50:28;100109.00;;;15.99;59.86
76460;BME280;65299;46.084;18.762;2022-11-20T07:53:28;100112.00;;;15.98;59.81
76460;BME280;65299;46.084;18.762;2022-11-20T07:56:29;100136.91;;;15.98;59.86
76460;BME280;65299;46.084;18.762;2022-11-20T07:59:29;100157.81;;;15.96;59.82
76460;BME280;65299;46.084;18.762;2022-11-20T08:02:30;100173.38;;;15.94;59.81
76460;BME280;65299;46.084;18.762;2022-11-20T08:05:30;100183.78;;;15.96;59.90
76460;BME280;65299;46.084;18.762;2022-11-20T08:08:30;100187.53;;;15.95;59.61
76460;BME280;65299;46.084;18.762;2022-11-20T08:11:31;100184.59;;;15.96;59.63
76460;BME280;65299;46.084;18.762;2022-11-20T08:14:50;100183.28;;;15.94;59.96
76460;BME280;65299;46.084;18.762;2022-11-20T08:17:50;100192.13;;;15.94;59.76
76460;BME280;65299;46.084;18.762;2022-11-20T08:20:50;100199.03;;;15.95;59.84
76460;BME280;65299;46.084;18.762;2022-11-20T08:23:51;100172.91;;;15.92;59.95
76460;BME280;65299;46.084;18.762;2022-11-20T08:26:52;100165.34;;;15.94;59.68
76460;BME280;65299;46.084;18.762;2022-11-20T08:29:52;100164.25;;;15.95;59.78
76460;BME280;65299;46.084;18.762;2022-11-20T08:32:53;100164.25;;;15.95;59.60
76460;BME280;65299;46.084;18.762;2022-11-20T08:36:01;100165.84;;;15.96;59.66
76460;BME280;65299;46.084;18.762;2022-11-20T08:39:02;100184.59;;;15.96;59.64
76460;BME280;65299;46.084;18.762;2022-11-20T08:42:06;100191.31;;;15.94;59.76
76460;BME280;65299;46.084;18.762;2022-11-20T08:45:07;100212.91;;;15.97;59.66
76460;BME280;65299;46.084;18.762;2022-11-20T08:48:08;100209.75;;;15.95;59.67
76460;BME280;65299;46.084;18.762;2022-11-20T08:51:08;100199.84;;;15.96;59.70
76460;BME280;65299;46.084;18.762;2022-11-20T08:54:09;100191.00;;;15.95;59.46
76460;BME280;65299;46.084;18.762;2022-11-20T08:57:09;100198.25;;;15.95;59.59
76460;BME280;65299;46.084;18.762;2022-11-20T09:00:10;100207.38;;;15.94;59.52
76460;BME280;65299;46.084;18.762;2022-11-20T09:03:11;100200.44;;;15.93;59.60
76460;BME280;65299;46.084;18.762;2022-11-20T09:06:13;100195.88;;;15.93;59.64
76460;BME280;65299;46.084;18.762;2022-11-20T09:09:14;100184.69;;;15.91;59.76
76460;BME280;65299;46.084;18.762;2022-11-20T09:12:14;100188.16;;;15.92;59.82
76460;BME280;65299;46.084;18.762;2022-11-20T09:15:15;100182.81;;;15.92;59.74
76460;BME280;65299;46.084;18.762;2022-11-20T09:18:15;100199.66;;;15.92;59.52
76460;BME280;65299;46.084;18.762;2022-11-20T09:21:15;100193.03;;;15.90;59.45
76460;BME280;65299;46.084;18.762;2022-11-20T09:24:17;100184.19;;;15.89;59.60
76460;BME280;65299;46.084;18.762;2022-11-20T09:27:17;100199.44;;;15.89;59.80
76460;BME280;65299;46.084;18.762;2022-11-20T09:30:21;100204.31;;;15.87;59.71
76460;BME280;65299;46.084;18.762;2022-11-20T09:33:22;100209.97;;;15.85;59.71
76460;BME280;65299;46.084;18.762;2022-11-20T09:36:22;100197.47;;;15.81;59.78
76460;BME280;65299;46.084;18.762;2022-11-20T09:39:23;100203.50;;;15.86;59.65
76460;BME280;65299;46.084;18.762;2022-11-20T09:42:35;100216.13;;;15.86;59.73
76460;BME280;65299;46.084;18.762;2022-11-20T09:49:00;100216.41;;;15.84;59.81
76460;BME280;65299;46.084;18.762;2022-11-20T09:55:21;100209.78;;;15.82;59.98
76460;BME280;65299;46.084;18.762;2022-11-20T10:01:32;100215.13;;;15.82;59.74
76460;BME280;65299;46.084;18.762;2022-11-20T10:04:46;100225.03;;;15.81;59.85
76460;BME280;65299;46.084;18.762;2022-11-20T10:11:24;100238.72;;;15.80;59.77
76460;BME280;65299;46.084;18.762;2022-11-20T10:14:38;100234.94;;;15.81;59.65
76460;BME280;65299;46.084;18.762;2022-11-20T10:18:09;100212.72;;;15.80;59.72
76460;BME280;65299;46.084;18.762;2022-11-20T10:24:43;100187.78;;;15.71;59.99
76460;BME280;65299;46.084;18.762;2022-11-20T10:28:11;100198.00;;;15.69;59.87
76460;BME280;65299;46.084;18.762;2022-11-20T10:31:33;100203.66;;;15.67;60.09
76460;BME280;65299;46.084;18.762;2022-11-20T10:34:53;100222.88;;;15.69;60.13
76460;BME280;65299;46.084;18.762;2022-11-20T10:38:05;100231.16;;;15.68;59.90
76460;BME280;65299;46.084;18.762;2022-11-20T10:41:19;100219.19;;;15.65;60.10
76460;BME280;65299;46.084;18.762;2022-11-20T10:44:29;100215.13;;;15.68;59.99
76460;BME280;65299;46.084;18.762;2022-11-20T10:47:48;100223.44;;;15.66;60.07
76460;BME280;65299;46.084;18.762;2022-11-20T10:51:07;100229.09;;;15.65;60.10
76460;BME280;65299;46.084;18.762;2022-11-20T10:57:51;100220.59;;;15.63;60.16
76460;BME280;65299;46.084;18.762;2022-11-20T11:01:03;100224.94;;;15.59;60.22
76460;BME280;65299;46.084;18.762;2022-11-20T11:07:39;100240.38;;;15.62;60.12
76460;BME280;65299;46.084;18.762;2022-11-20T11:14:16;100238.00;;;15.60;59.95
76460;BME280;65299;46.084;18.762;2022-11-20T11:20:23;100213.34;;;15.63;59.91
76460;BME280;65299;46.084;18.762;2022-11-20T11:23:41;100209.88;;;15.63;60.02
76460;BME280;65299;46.084;18.762;2022-11-20T11:30:16;100202.66;;;15.63;60.01
76460;BME280;65299;46.084;18.762;2022-11-20T11:33:24;100207.50;;;15.61;59.99
76460;BME280;65299;46.084;18.762;2022-11-20T11:36:25;100217.91;;;15.63;59.93
76460;BME280;65299;46.084;18.762;2022-11-20T11:39:27;100218.22;;;15.61;59.92
76460;BME280;65299;46.084;18.762;2022-11-20T11:42:29;100215.31;;;15.58;59.82
76460;BME280;65299;46.084;18.762;2022-11-20T11:45:30;100224.94;;;15.59;60.00
76460;BME280;65299;46.084;18.762;2022-11-20T11:48:30;100226.81;;;15.58;59.99
76460;BME280;65299;46.084;18.762;2022-11-20T11:55:09;100209.47;;;15.56;60.10
76460;BME280;65299;46.084;18.762;2022-11-20T12:01:58;100205.22;;;15.55;60.12
76460;BME280;65299;46.084;18.762;2022-11-20T12:08:49;100211.38;;;15.55;60.07
76460;BME280;65299;46.084;18.762;2022-11-20T12:11:59;100211.66;;;15.54;60.04
76460;BME280;65299;46.084;18.762;2022-11-20T12:15:06;100208.97;;;15.54;60.18
76460;BME280;65299;46.084;18.762;2022-11-20T12:18:15;100196.22;;;15.51;60.09
76460;BME280;65299;46.084;18.762;2022-11-20T12:24:59;100181.25;;;15.50;60.08
76460;BME280;65299;46.084;18.762;2022-11-20T12:28:36;100174.00;;;15.50;60.08
76460;BME280;65299;46.084;18.762;2022-11-20T12:45:44;100193.34;;;15.47;60.25
76460;BME280;65299;46.084;18.762;2022-11-20T12:48:58;100188.00;;;15.47;60.16
76460;BME280;65299;46.084;18.762;2022-11-20T12:55:34;100200.06;;;15.45;60.14
76460;BME280;65299;46.084;18.762;2022-11-20T13:05:06;100209.97;;;15.44;60.24
76460;BME280;65299;46.084;18.762;2022-11-20T13:08:35;100199.56;;;15.43;60.16
76460;BME280;65299;46.084;18.762;2022-11-20T13:11:48;100193.44;;;15.42;60.27
76460;BME280;65299;46.084;18.762;2022-11-20T13:18:12;100212.16;;;15.42;60.17
76460;BME280;65299;46.084;18.762;2022-11-20T13:21:40;100208.38;;;15.43;60.25
76460;BME280;65299;46.084;18.762;2022-11-20T13:24:50;100214.00;;;15.42;59.94
76460;BME280;65299;46.084;18.762;2022-11-20T13:27:53;100205.97;;;15.42;60.13
76460;BME280;65299;46.084;18.762;2022-11-20T13:30:55;100203.59;;;15.40;60.21
76460;BME280;65299;46.084;18.762;2022-11-20T13:33:57;100202.25;;;15.43;60.01
76460;BME280;65299;46.084;18.762;2022-11-20T13:36:59;100205.97;;;15.42;60.07
76460;BME280;65299;46.084;18.762;2022-11-20T13:43:22;100209.25;;;15.39;60.10
76460;BME280;65299;46.084;18.762;2022-11-20T13:46:35;100208.44;;;15.38;60.03
76460;BME280;65299;46.084;18.762;2022-11-20T13:49:39;100202.00;;;15.39;60.11
76460;BME280;65299;46.084;18.762;2022-11-20T13:59:40;100200.63;;;15.42;60.18
76460;BME280;65299;46.084;18.762;2022-11-20T14:03:35;100209.75;;;15.41;60.00
76460;BME280;65299;46.084;18.762;2022-11-20T14:06:29;100204.13;;;15.42;59.90
76460;BME280;65299;46.084;18.762;2022-11-20T14:09:33;100209.47;;;15.42;60.00
76460;BME280;65299;46.084;18.762;2022-11-20T14:12:34;100216.97;;;15.40;60.02
76460;BME280;65299;46.084;18.762;2022-11-20T14:15:34;100222.63;;;15.39;59.96
76460;BME280;65299;46.084;18.762;2022-11-20T14:18:35;100233.31;;;15.39;60.05
76460;BME280;65299;46.084;18.762;2022-11-20T14:21:35;100224.81;;;15.37;59.90
76460;BME280;65299;46.084;18.762;2022-11-20T14:24:35;100222.13;;;15.37;59.98
76460;BME280;65299;46.084;18.762;2022-11-20T14:27:38;100217.84;;;15.36;60.15
76460;BME280;65299;46.084;18.762;2022-11-20T14:30:44;100229.91;;;15.33;60.12
76460;BME280;65299;46.084;18.762;2022-11-20T14:33:45;100234.19;;;15.34;59.92
76460;BME280;65299;46.084;18.762;2022-11-20T14:36:47;100229.91;;;15.33;59.79
76460;BME280;65299;46.084;18.762;2022-11-20T14:39:53;100225.97;;;15.31;60.11
76460;BME280;65299;46.084;18.762;2022-11-20T14:42:54;100231.31;;;15.31;60.23
76460;BME280;65299;46.084;18.762;2022-11-20T14:45:59;100229.72;;;15.30;60.06
76460;BME280;65299;46.084;18.762;2022-11-20T14:49:02;100233.50;;;15.29;60.13
76460;BME280;65299;46.084;18.762;2022-11-20T14:52:24;100229.53;;;15.26;60.08
76460;BME280;65299;46.084;18.762;2022-11-20T14:55:30;100232.69;;;15.28;60.05
76460;BME280;65299;46.084;18.762;2022-11-20T14:58:33;100236.19;;;15.29;60.15
76460;BME280;65299;46.084;18.762;2022-11-20T15:01:34;100241.03;;;15.27;60.17
76460;BME280;65299;46.084;18.762;2022-11-20T15:05:05;100237.84;;;15.25;60.10
76460;BME280;65299;46.084;18.762;2022-11-20T15:08:07;100225.56;;;15.24;60.20
76460;BME280;65299;46.084;18.762;2022-11-20T15:11:19;100220.22;;;15.24;60.19
76460;BME280;65299;46.084;18.762;2022-11-20T15:14:21;100219.22;;;15.20;59.98
76460;BME280;65299;46.084;18.762;2022-11-20T15:17:21;100214.66;;;15.20;60.27
76460;BME280;65299;46.084;18.762;2022-11-20T15:20:25;100210.41;;;15.19;60.34
76460;BME280;65299;46.084;18.762;2022-11-20T15:23:27;100212.31;;;15.19;60.23
76460;BME280;65299;46.084;18.762;2022-11-20T15:26:27;100211.81;;;15.17;60.32
76460;BME280;65299;46.084;18.762;2022-11-20T15:29:28;100205.34;;;15.18;60.25
76460;BME280;65299;46.084;18.762;2022-11-20T15:32:28;100202.19;;;15.16;60.32
76460;BME280;65299;46.084;18.762;2022-11-20T15:35:29;100199.50;;;15.16;60.17
76460;BME280;65299;46.084;18.762;2022-11-20T15:38:29;100202.19;;;15.16;60.29
76460;BME280;65299;46.084;18.762;2022-11-20T15:41:30;100206.72;;;15.15;60.39
76460;BME280;65299;46.084;18.762;2022-11-20T15:44:30;100207.03;;;15.14;60.28
76460;BME280;65299;46.084;18.762;2022-11-20T15:47:32;100200.59;;;15.15;60.29
76460;BME280;65299;46.084;18.762;2022-11-20T15:50:37;100196.84;;;15.16;60.17
76460;BME280;65299;46.084;18.762;2022-11-20T15:53:39;100194.66;;;15.18;59.97
76460;BME280;65299;46.084;18.762;2022-11-20T15:56:40;100194.16;;;15.16;60.20
76460;BME280;65299;46.084;18.762;2022-11-20T15:59:40;100196.84;;;15.16;60.21
76460;BME280;65299;46.084;18.762;2022-11-20T16:02:41;100189.69;;;15.11;60.28
76460;BME280;65299;46.084;18.762;2022-11-20T16:05:42;100184.06;;;15.13;60.15
76460;BME280;65299;46.084;18.762;2022-11-20T16:08:43;100180.59;;;15.12;60.17
76460;BME280;65299;46.084;18.762;2022-11-20T16:11:43;100173.97;;;15.10;60.25
76460;BME280;65299;46.084;18.762;2022-11-20T16:14:44;100172.28;;;15.14;60.30
76460;BME280;65299;46.084;18.762;2022-11-20T16:18:03;100165.38;;;15.13;60.18
76460;BME280;65299;46.084;18.762;2022-11-20T16:21:03;100146.16;;;15.11;60.18
76460;BME280;65299;46.084;18.762;2022-11-20T16:24:05;100139.22;;;15.10;60.19
76460;BME280;65299;46.084;18.762;2022-11-20T16:27:06;100139.22;;;15.10;60.25
76460;BME280;65299;46.084;18.762;2022-11-20T16:30:07;100132.78;;;15.11;60.17
76460;BME280;65299;46.084;18.762;2022-11-20T16:33:13;100127.44;;;15.11;60.13
76460;BME280;65299;46.084;18.762;2022-11-20T16:36:14;100126.34;;;15.12;60.17
76460;BME280;65299;46.084;18.762;2022-11-20T16:39:15;100130.59;;;15.13;60.17
76460;BME280;65299;46.084;18.762;2022-11-20T16:42:15;100131.69;;;15.12;60.06
76460;BME280;65299;46.084;18.762;2022-11-20T16:45:16;100119.41;;;15.11;60.14
76460;BME280;65299;46.084;18.762;2022-11-20T16:48:16;100118.31;;;15.12;60.05
76460;BME280;65299;46.084;18.762;2022-11-20T16:51:17;100106.34;;;15.09;60.16
76460;BME280;65299;46.084;18.762;2022-11-20T16:54:17;100105.25;;;15.10;60.08
76460;BME280;65299;46.084;18.762;2022-11-20T16:57:18;100100.97;;;15.09;59.99
76460;BME280;65299;46.084;18.762;2022-11-20T17:00:18;100120.00;;;15.08;60.23
76460;BME280;65299;46.084;18.762;2022-11-20T17:03:18;100129.63;;;15.09;60.06
76460;BME280;65299;46.084;18.762;2022-11-20T17:06:22;100147.84;;;15.07;60.08
76460;BME280;65299;46.084;18.762;2022-11-20T17:09:22;100159.28;;;15.07;60.17
76460;BME280;65299;46.084;18.762;2022-11-20T17:12:23;100186.81;;;15.08;60.02